sensor_id;sensor_type;location;lat;lon;timestamp;pressure;altitude;pressure_sealevel;temperature;humidity
51261;BME280;61705;46.228;24.812;2024-03-29T00:01:46;96771.09;;;5.60;100.00
51261;BME280;61705;46.228;24.812;2024-03-29T00:04:11;96768.63;;;5.57;100.00
51261;BME280;61705;46.228;24.812;2024-03-29T00:06:37;96773.00;;;5.57;100.00
51261;BME280;61705;46.228;24.812;2024-03-29T00:09:03;96778.25;;;5.57;100.00
51261;BME280;61705;46.228;24.812;2024-03-29T00:11:28;96775.72;;;5.54;100.00
51261;BME280;61705;46.228;24.812;2024-03-29T00:13:54;96765.75;;;5.41;100.00
51261;BME280;61705;46.228;24.812;2024-03-29T00:16:20;96767.28;;;5.25;100.00
51261;BME280;61705;46.228;24.812;2024-03-29T00:18:47;96771.53;;;5.28;100.00
51261;BME280;61705;46.228;24.812;2024-03-29T00:21:13;96778.59;;;5.26;100.00
51261;BME280;61705;46.228;24.812;2024-03-29T00:23:40;96781.69;;;5.37;100.00
51261;BME280;61705;46.228;24.812;2024-03-29T00:26:05;96777.28;;;5.37;100.00
51261;BME280;61705;46.228;24.812;2024-03-29T00:28:32;96780.31;;;5.27;100.00
51261;BME280;61705;46.228;24.812;2024-03-29T00:30:58;96786.28;;;5.30;100.00
51261;BME280;61705;46.228;24.812;2024-03-29T00:33:24;96791.53;;;5.30;100.00
51261;BME280;61705;46.228;24.812;2024-03-29T00:35:49;96785.03;;;5.40;100.00
51261;BME280;61705;46.228;24.812;2024-03-29T00:38:15;96778.91;;;5.40;100.00
51261;BME280;61705;46.228;24.812;2024-03-29T00:40:41;96777.91;;;5.44;100.00
51261;BME280;61705;46.228;24.812;2024-03-29T00:43:06;96780.69;;;5.39;100.00
51261;BME280;61705;46.228;24.812;2024-03-29T00:45:32;96781.47;;;5.41;100.00
51261;BME280;61705;46.228;24.812;2024-03-29T00:47:58;96789.47;;;5.38;100.00
51261;BME280;61705;46.228;24.812;2024-03-29T00:50:24;96798.28;;;5.36;100.00
51261;BME280;61705;46.228;24.812;2024-03-29T00:52:49;96798.66;;;5.27;100.00
51261;BME280;61705;46.228;24.812;2024-03-29T00:55:15;96799.63;;;5.24;100.00
51261;BME280;61705;46.228;24.812;2024-03-29T00:57:41;96802.28;;;5.22;100.00
51261;BME280;61705;46.228;24.812;2024-03-29T01:00:07;96802.13;;;5.27;100.00
51261;BME280;61705;46.228;24.812;2024-03-29T01:02:32;96804.06;;;5.22;100.00
51261;BME280;61705;46.228;24.812;2024-03-29T01:04:58;96806.75;;;5.20;100.00
51261;BME280;61705;46.228;24.812;2024-03-29T01:07:24;96807.59;;;5.21;100.00
51261;BME280;61705;46.228;24.812;2024-03-29T01:09:50;96799.75;;;5.21;100.00
51261;BME280;61705;46.228;24.812;2024-03-29T01:12:15;96808.88;;;5.33;100.00
51261;BME280;61705;46.228;24.812;2024-03-29T01:14:41;96799.88;;;5.40;100.00
51261;BME280;61705;46.228;24.812;2024-03-29T01:17:07;96806.22;;;5.34;100.00
51261;BME280;61705;46.228;24.812;2024-03-29T01:19:32;96804.31;;;5.38;100.00
51261;BME280;61705;46.228;24.812;2024-03-29T01:21:58;96792.28;;;5.34;100.00
51261;BME280;61705;46.228;24.812;2024-03-29T01:24:24;96816.50;;;5.39;100.00
51261;BME280;61705;46.228;24.812;2024-03-29T01:26:52;96808.47;;;5.43;100.00
51261;BME280;61705;46.228;24.812;2024-03-29T01:29:19;96807.44;;;5.47;100.00
51261;BME280;61705;46.228;24.812;2024-03-29T01:31:44;96814.47;;;5.47;100.00
51261;BME280;61705;46.228;24.812;2024-03-29T01:34:10;96820.13;;;5.58;100.00
51261;BME280;61705;46.228;24.812;2024-03-29T01:36:36;96817.91;;;5.69;100.00
51261;BME280;61705;46.228;24.812;2024-03-29T01:39:01;96822.75;;;5.58;100.00
51261;BME280;61705;46.228;24.812;2024-03-29T01:41:27;96818.28;;;5.60;100.00
51261;BME280;61705;46.228;24.812;2024-03-29T01:43:53;96820.25;;;5.55;100.00
51261;BME280;61705;46.228;24.812;2024-03-29T01:46:19;96829.63;;;5.61;100.00
51261;BME280;61705;46.228;24.812;2024-03-29T01:48:46;96824.88;;;5.49;100.00
51261;BME280;61705;46.228;24.812;2024-03-29T01:51:12;96837.22;;;5.45;100.00
51261;BME280;61705;46.228;24.812;2024-03-29T01:53:39;96841.63;;;5.44;100.00
51261;BME280;61705;46.228;24.812;2024-03-29T01:56:05;96834.81;;;5.40;100.00
51261;BME280;61705;46.228;24.812;2024-03-29T01:58:31;96837.13;;;5.48;100.00
51261;BME280;61705;46.228;24.812;2024-03-29T02:00:58;96838.47;;;5.58;100.00
51261;BME280;61705;46.228;24.812;2024-03-29T02:03:25;96835.97;;;5.55;100.00
51261;BME280;61705;46.228;24.812;2024-03-29T02:05:51;96832.00;;;5.45;100.00
51261;BME280;61705;46.228;24.812;2024-03-29T02:08:18;96839.00;;;5.44;100.00
51261;BME280;61705;46.228;24.812;2024-03-29T02:10:45;96831.56;;;5.56;100.00
51261;BME280;61705;46.228;24.812;2024-03-29T02:13:12;96835.97;;;5.55;100.00
51261;BME280;61705;46.228;24.812;2024-03-29T02:15:41;96834.63;;;5.67;100.00
51261;BME280;61705;46.228;24.812;2024-03-29T02:18:07;96829.56;;;5.62;100.00
51261;BME280;61705;46.228;24.812;2024-03-29T02:20:32;96844.22;;;5.68;100.00
51261;BME280;61705;46.228;24.812;2024-03-29T02:23:11;96850.47;;;5.64;100.00
51261;BME280;61705;46.228;24.812;2024-03-29T02:25:39;96846.13;;;5.63;100.00
51261;BME280;61705;46.228;24.812;2024-03-29T02:28:05;96865.41;;;5.62;100.00
51261;BME280;61705;46.228;24.812;2024-03-29T02:30:30;96854.06;;;5.61;100.00
51261;BME280;61705;46.228;24.812;2024-03-29T02:32:57;96861.94;;;5.61;100.00
51261;BME280;61705;46.228;24.812;2024-03-29T02:35:23;96867.22;;;5.60;100.00
51261;BME280;61705;46.228;24.812;2024-03-29T02:37:48;96867.22;;;5.60;100.00
51261;BME280;61705;46.228;24.812;2024-03-29T02:40:15;96876.50;;;5.68;100.00
51261;BME280;61705;46.228;24.812;2024-03-29T02:42:40;96883.44;;;5.69;100.00
51261;BME280;61705;46.228;24.812;2024-03-29T02:45:06;96880.16;;;5.64;100.00
51261;BME280;61705;46.228;24.812;2024-03-29T02:47:33;96883.03;;;5.58;100.00
51261;BME280;61705;46.228;24.812;2024-03-29T02:49:58;96880.44;;;5.57;100.00
51261;BME280;61705;46.228;24.812;2024-03-29T02:52:24;96877.09;;;5.53;100.00
51261;BME280;61705;46.228;24.812;2024-03-29T02:54:50;96859.56;;;5.55;100.00
51261;BME280;61705;46.228;24.812;2024-03-29T02:57:15;96867.41;;;5.55;100.00
51261;BME280;61705;46.228;24.812;2024-03-29T02:59:41;96859.34;;;5.60;100.00
51261;BME280;61705;46.228;24.812;2024-03-29T03:02:07;96881.78;;;5.67;100.00
51261;BME280;61705;46.228;24.812;2024-03-29T03:04:32;96902.66;;;5.70;100.00
51261;BME280;61705;46.228;24.812;2024-03-29T03:06:58;96912.16;;;5.73;100.00
51261;BME280;61705;46.228;24.812;2024-03-29T03:09:44;96914.84;;;5.71;100.00
51261;BME280;61705;46.228;24.812;2024-03-29T03:12:31;96916.69;;;5.69;100.00
51261;BME280;61705;46.228;24.812;2024-03-29T03:14:57;96911.34;;;5.70;100.00
51261;BME280;61705;46.228;24.812;2024-03-29T03:17:24;96909.44;;;5.76;100.00
51261;BME280;61705;46.228;24.812;2024-03-29T03:19:53;96920.41;;;5.85;100.00
51261;BME280;61705;46.228;24.812;2024-03-29T03:22:18;96924.66;;;5.88;100.00
51261;BME280;61705;46.228;24.812;2024-03-29T03:24:44;96928.00;;;5.93;100.00
51261;BME280;61705;46.228;24.812;2024-03-29T03:27:13;96931.47;;;5.93;100.00
51261;BME280;61705;46.228;24.812;2024-03-29T03:29:39;96938.44;;;5.94;100.00
51261;BME280;61705;46.228;24.812;2024-03-29T03:32:05;96939.78;;;6.05;100.00
51261;BME280;61705;46.228;24.812;2024-03-29T03:34:31;96956.00;;;6.14;100.00
51261;BME280;61705;46.228;24.812;2024-03-29T03:36:57;96962.84;;;6.18;100.00
51261;BME280;61705;46.228;24.812;2024-03-29T03:39:23;96962.56;;;6.26;100.00
51261;BME280;61705;46.228;24.812;2024-03-29T03:41:48;96964.91;;;6.32;100.00
51261;BME280;61705;46.228;24.812;2024-03-29T03:44:15;96965.78;;;6.33;100.00
51261;BME280;61705;46.228;24.812;2024-03-29T03:46:41;96969.69;;;6.23;100.00
51261;BME280;61705;46.228;24.812;2024-03-29T03:49:08;96961.75;;;6.24;100.00
51261;BME280;61705;46.228;24.812;2024-03-29T03:51:33;96961.97;;;6.18;100.00
51261;BME280;61705;46.228;24.812;2024-03-29T03:53:59;96963.34;;;6.06;100.00
51261;BME280;61705;46.228;24.812;2024-03-29T03:56:25;96978.34;;;6.03;100.00
51261;BME280;61705;46.228;24.812;2024-03-29T03:58:50;96991.13;;;5.87;100.00
51261;BME280;61705;46.228;24.812;2024-03-29T04:01:16;97002.25;;;5.95;100.00
51261;BME280;61705;46.228;24.812;2024-03-29T04:03:42;97005.59;;;5.99;100.00
51261;BME280;61705;46.228;24.812;2024-03-29T04:06:07;97027.06;;;6.08;100.00
51261;BME280;61705;46.228;24.812;2024-03-29T04:08:33;97044.56;;;6.08;100.00
51261;BME280;61705;46.228;24.812;2024-03-29T04:11:02;97042.69;;;6.11;100.00
51261;BME280;61705;46.228;24.812;2024-03-29T04:13:28;97052.19;;;6.15;100.00
51261;BME280;61705;46.228;24.812;2024-03-29T04:16:02;97054.19;;;6.31;100.00
51261;BME280;61705;46.228;24.812;2024-03-29T04:18:28;97058.38;;;6.36;100.00
51261;BME280;61705;46.228;24.812;2024-03-29T04:20:57;97069.47;;;6.43;100.00
51261;BME280;61705;46.228;24.812;2024-03-29T04:23:23;97081.88;;;6.39;100.00
51261;BME280;61705;46.228;24.812;2024-03-29T04:25:52;97086.59;;;6.53;100.00
51261;BME280;61705;46.228;24.812;2024-03-29T04:28:21;97091.41;;;7.08;100.00
51261;BME280;61705;46.228;24.812;2024-03-29T04:30:53;97096.22;;;7.39;100.00
51261;BME280;61705;46.228;24.812;2024-03-29T04:33:19;97093.00;;;7.73;100.00
51261;BME280;61705;46.228;24.812;2024-03-29T04:35:57;97063.44;;;8.07;100.00
51261;BME280;61705;46.228;24.812;2024-03-29T04:38:23;97057.91;;;8.51;100.00
51261;BME280;61705;46.228;24.812;2024-03-29T04:40:50;97068.44;;;9.07;100.00
51261;BME280;61705;46.228;24.812;2024-03-29T04:43:16;97067.81;;;9.36;100.00
51261;BME280;61705;46.228;24.812;2024-03-29T04:45:45;97076.22;;;9.44;100.00
51261;BME280;61705;46.228;24.812;2024-03-29T04:48:11;97068.91;;;9.49;100.00
51261;BME280;61705;46.228;24.812;2024-03-29T04:50:37;97050.19;;;9.71;100.00
51261;BME280;61705;46.228;24.812;2024-03-29T04:53:02;97042.88;;;10.10;100.00
51261;BME280;61705;46.228;24.812;2024-03-29T04:55:28;97043.13;;;10.54;100.00
51261;BME280;61705;46.228;24.812;2024-03-29T04:57:54;97050.97;;;10.72;100.00
51261;BME280;61705;46.228;24.812;2024-03-29T05:00:19;97053.84;;;10.99;100.00
51261;BME280;61705;46.228;24.812;2024-03-29T05:02:48;97048.06;;;11.22;100.00
51261;BME280;61705;46.228;24.812;2024-03-29T05:05:13;97053.63;;;11.48;100.00
51261;BME280;61705;46.228;24.812;2024-03-29T05:07:39;97051.63;;;11.51;100.00
51261;BME280;61705;46.228;24.812;2024-03-29T05:10:05;97057.16;;;11.62;100.00
51261;BME280;61705;46.228;24.812;2024-03-29T05:12:32;97068.97;;;11.87;100.00
51261;BME280;61705;46.228;24.812;2024-03-29T05:14:58;97082.09;;;11.89;100.00
51261;BME280;61705;46.228;24.812;2024-03-29T05:17:23;97088.22;;;11.89;100.00
51261;BME280;61705;46.228;24.812;2024-03-29T05:19:52;97078.06;;;11.81;100.00
51261;BME280;61705;46.228;24.812;2024-03-29T05:22:18;97090.63;;;11.94;100.00
51261;BME280;61705;46.228;24.812;2024-03-29T05:24:43;97095.25;;;11.90;100.00
51261;BME280;61705;46.228;24.812;2024-03-29T05:27:11;97083.59;;;11.93;100.00
51261;BME280;61705;46.228;24.812;2024-03-29T05:29:36;97093.44;;;11.91;100.00
51261;BME280;61705;46.228;24.812;2024-03-29T05:32:03;97087.91;;;11.79;100.00
51261;BME280;61705;46.228;24.812;2024-03-29T05:34:29;97103.75;;;11.65;100.00
51261;BME280;61705;46.228;24.812;2024-03-29T05:36:55;97106.69;;;11.60;100.00
51261;BME280;61705;46.228;24.812;2024-03-29T05:39:21;97096.13;;;11.75;100.00
51261;BME280;61705;46.228;24.812;2024-03-29T05:41:46;97093.19;;;11.79;100.00
51261;BME280;61705;46.228;24.812;2024-03-29T05:44:13;97088.53;;;11.84;100.00
51261;BME280;61705;46.228;24.812;2024-03-29T05:46:38;97073.75;;;11.80;100.00
51261;BME280;61705;46.228;24.812;2024-03-29T05:49:06;97089.78;;;11.93;100.00
51261;BME280;61705;46.228;24.812;2024-03-29T05:51:31;97085.53;;;12.05;100.00
51261;BME280;61705;46.228;24.812;2024-03-29T05:53:59;97074.19;;;12.17;100.00
51261;BME280;61705;46.228;24.812;2024-03-29T05:56:25;97079.94;;;12.24;100.00
51261;BME280;61705;46.228;24.812;2024-03-29T05:58:50;97084.78;;;12.31;100.00
51261;BME280;61705;46.228;24.812;2024-03-29T06:01:16;97089.88;;;12.35;100.00
51261;BME280;61705;46.228;24.812;2024-03-29T06:03:42;97105.13;;;12.45;100.00
51261;BME280;61705;46.228;24.812;2024-03-29T06:06:08;97115.59;;;12.47;100.00
51261;BME280;61705;46.228;24.812;2024-03-29T06:08:37;97120.06;;;12.46;100.00
51261;BME280;61705;46.228;24.812;2024-03-29T06:11:03;97122.22;;;12.40;100.00
51261;BME280;61705;46.228;24.812;2024-03-29T06:13:28;97128.84;;;12.47;100.00
51261;BME280;61705;46.228;24.812;2024-03-29T06:16:13;97135.13;;;12.46;100.00
51261;BME280;61705;46.228;24.812;2024-03-29T06:18:57;97134.38;;;12.58;100.00
51261;BME280;61705;46.228;24.812;2024-03-29T06:21:23;97130.16;;;12.68;100.00
51261;BME280;61705;46.228;24.812;2024-03-29T06:23:48;97126.66;;;12.68;100.00
51261;BME280;61705;46.228;24.812;2024-03-29T06:26:14;97138.13;;;12.68;100.00
51261;BME280;61705;46.228;24.812;2024-03-29T06:28:39;97147.50;;;12.74;100.00
51261;BME280;61705;46.228;24.812;2024-03-29T06:31:05;97159.06;;;12.73;100.00
51261;BME280;61705;46.228;24.812;2024-03-29T06:33:31;97178.34;;;12.75;100.00
51261;BME280;61705;46.228;24.812;2024-03-29T06:35:56;97191.53;;;12.76;100.00
51261;BME280;61705;46.228;24.812;2024-03-29T06:38:22;97193.69;;;12.84;100.00
51261;BME280;61705;46.228;24.812;2024-03-29T06:40:48;97198.81;;;12.87;100.00
51261;BME280;61705;46.228;24.812;2024-03-29T06:43:14;97208.47;;;12.88;100.00
51261;BME280;61705;46.228;24.812;2024-03-29T06:45:40;97212.72;;;12.91;100.00
51261;BME280;61705;46.228;24.812;2024-03-29T06:48:08;97218.31;;;13.00;100.00
51261;BME280;61705;46.228;24.812;2024-03-29T06:50:33;97226.94;;;13.04;100.00
51261;BME280;61705;46.228;24.812;2024-03-29T06:53:00;97254.13;;;13.08;100.00
51261;BME280;61705;46.228;24.812;2024-03-29T06:55:25;97247.47;;;13.15;100.00
51261;BME280;61705;46.228;24.812;2024-03-29T06:57:51;97242.75;;;13.20;100.00
51261;BME280;61705;46.228;24.812;2024-03-29T07:00:17;97244.28;;;13.24;100.00
51261;BME280;61705;46.228;24.812;2024-03-29T07:02:43;97254.09;;;13.22;100.00
51261;BME280;61705;46.228;24.812;2024-03-29T07:05:09;97252.16;;;13.25;100.00
51261;BME280;61705;46.228;24.812;2024-03-29T07:07:37;97260.38;;;13.35;100.00
51261;BME280;61705;46.228;24.812;2024-03-29T07:10:02;97260.38;;;13.35;100.00
51261;BME280;61705;46.228;24.812;2024-03-29T07:12:28;97283.41;;;13.35;100.00
51261;BME280;61705;46.228;24.812;2024-03-29T07:14:54;97295.53;;;13.39;100.00
51261;BME280;61705;46.228;24.812;2024-03-29T07:17:20;97306.72;;;13.44;100.00
51261;BME280;61705;46.228;24.812;2024-03-29T07:19:45;97296.84;;;13.46;100.00
51261;BME280;61705;46.228;24.812;2024-03-29T07:22:11;97311.63;;;13.50;100.00
51261;BME280;61705;46.228;24.812;2024-03-29T07:24:36;97324.91;;;13.50;100.00
51261;BME280;61705;46.228;24.812;2024-03-29T07:27:02;97294.16;;;13.60;100.00
51261;BME280;61705;46.228;24.812;2024-03-29T07:29:28;97295.22;;;13.72;100.00
51261;BME280;61705;46.228;24.812;2024-03-29T07:31:53;97311.09;;;13.86;100.00
51261;BME280;61705;46.228;24.812;2024-03-29T07:34:19;97307.69;;;13.84;100.00
51261;BME280;61705;46.228;24.812;2024-03-29T07:36:45;97319.34;;;13.96;100.00
51261;BME280;61705;46.228;24.812;2024-03-29T07:39:11;97317.13;;;14.03;100.00
51261;BME280;61705;46.228;24.812;2024-03-29T07:41:37;97313.44;;;14.05;100.00
51261;BME280;61705;46.228;24.812;2024-03-29T07:44:02;97314.56;;;14.01;100.00
51261;BME280;61705;46.228;24.812;2024-03-29T07:46:32;97320.53;;;14.05;100.00
51261;BME280;61705;46.228;24.812;2024-03-29T07:48:59;97315.97;;;14.07;100.00
51261;BME280;61705;46.228;24.812;2024-03-29T07:51:24;97316.81;;;14.07;100.00
51261;BME280;61705;46.228;24.812;2024-03-29T07:53:50;97315.97;;;14.07;100.00
51261;BME280;61705;46.228;24.812;2024-03-29T07:56:16;97318.56;;;14.21;100.00
51261;BME280;61705;46.228;24.812;2024-03-29T07:58:42;97323.59;;;14.26;100.00
51261;BME280;61705;46.228;24.812;2024-03-29T08:01:08;97328.50;;;14.32;100.00
51261;BME280;61705;46.228;24.812;2024-03-29T08:03:33;97333.97;;;14.43;100.00
51261;BME280;61705;46.228;24.812;2024-03-29T08:06:00;97335.81;;;14.55;100.00
51261;BME280;61705;46.228;24.812;2024-03-29T08:08:30;97327.03;;;14.67;100.00
51261;BME280;61705;46.228;24.812;2024-03-29T08:10:55;97350.31;;;14.64;100.00
51261;BME280;61705;46.228;24.812;2024-03-29T08:13:21;97348.31;;;14.67;100.00
51261;BME280;61705;46.228;24.812;2024-03-29T08:15:48;97346.94;;;14.75;100.00
51261;BME280;61705;46.228;24.812;2024-03-29T08:18:14;97341.22;;;14.81;99.84
51261;BME280;61705;46.228;24.812;2024-03-29T08:20:39;97341.00;;;14.97;98.75
51261;BME280;61705;46.228;24.812;2024-03-29T08:23:05;97348.00;;;14.72;97.56
51261;BME280;61705;46.228;24.812;2024-03-29T08:25:31;97369.34;;;14.58;97.75
51261;BME280;61705;46.228;24.812;2024-03-29T08:27:57;97358.38;;;14.62;95.11
51261;BME280;61705;46.228;24.812;2024-03-29T08:30:25;97365.19;;;14.66;95.79
51261;BME280;61705;46.228;24.812;2024-03-29T08:32:52;97362.63;;;14.52;94.16
51261;BME280;61705;46.228;24.812;2024-03-29T08:35:20;97378.56;;;14.52;93.67
51261;BME280;61705;46.228;24.812;2024-03-29T08:37:46;97375.44;;;14.45;92.04
51261;BME280;61705;46.228;24.812;2024-03-29T08:40:11;97385.16;;;14.86;90.69
51261;BME280;61705;46.228;24.812;2024-03-29T08:42:37;97376.66;;;14.94;90.53
51261;BME280;61705;46.228;24.812;2024-03-29T08:45:04;97381.97;;;15.07;89.17
51261;BME280;61705;46.228;24.812;2024-03-29T08:47:33;97375.50;;;15.24;87.66
51261;BME280;61705;46.228;24.812;2024-03-29T08:49:59;97379.03;;;15.37;88.00
51261;BME280;61705;46.228;24.812;2024-03-29T08:52:24;97383.72;;;15.33;87.77
51261;BME280;61705;46.228;24.812;2024-03-29T08:54:50;97387.63;;;15.28;88.03
51261;BME280;61705;46.228;24.812;2024-03-29T08:57:16;97395.31;;;15.32;88.13
51261;BME280;61705;46.228;24.812;2024-03-29T08:59:41;97390.75;;;15.22;90.15
51261;BME280;61705;46.228;24.812;2024-03-29T09:02:07;97389.97;;;15.07;93.09
51261;BME280;61705;46.228;24.812;2024-03-29T09:04:33;97378.94;;;14.73;93.98
51261;BME280;61705;46.228;24.812;2024-03-29T09:07:01;97381.84;;;14.70;94.54
51261;BME280;61705;46.228;24.812;2024-03-29T09:09:31;97390.47;;;14.74;94.17
51261;BME280;61705;46.228;24.812;2024-03-29T09:11:57;97382.63;;;14.98;91.14
51261;BME280;61705;46.228;24.812;2024-03-29T09:14:23;97378.38;;;14.95;90.25
51261;BME280;61705;46.228;24.812;2024-03-29T09:16:49;97376.88;;;15.04;89.37
51261;BME280;61705;46.228;24.812;2024-03-29T09:19:15;97368.78;;;14.92;87.73
51261;BME280;61705;46.228;24.812;2024-03-29T09:21:41;97379.81;;;14.86;89.94
51261;BME280;61705;46.228;24.812;2024-03-29T09:24:07;97373.28;;;15.05;90.46
51261;BME280;61705;46.228;24.812;2024-03-29T09:26:33;97366.25;;;15.16;90.59
51261;BME280;61705;46.228;24.812;2024-03-29T09:28:58;97360.50;;;15.23;91.04
51261;BME280;61705;46.228;24.812;2024-03-29T09:31:24;97360.81;;;15.31;88.63
51261;BME280;61705;46.228;24.812;2024-03-29T09:33:50;97368.69;;;15.07;87.00
51261;BME280;61705;46.228;24.812;2024-03-29T09:36:21;97378.28;;;15.22;86.68
51261;BME280;61705;46.228;24.812;2024-03-29T09:38:49;97374.75;;;15.34;84.38
51261;BME280;61705;46.228;24.812;2024-03-29T09:41:15;97365.72;;;15.37;83.52
51261;BME280;61705;46.228;24.812;2024-03-29T09:43:42;97369.34;;;15.23;83.56
51261;BME280;61705;46.228;24.812;2024-03-29T09:46:10;97377.75;;;15.04;85.44
51261;BME280;61705;46.228;24.812;2024-03-29T09:48:37;97371.25;;;15.47;84.84
51261;BME280;61705;46.228;24.812;2024-03-29T09:51:03;97392.84;;;15.55;85.14
51261;BME280;61705;46.228;24.812;2024-03-29T09:53:30;97392.44;;;15.61;84.39
51261;BME280;61705;46.228;24.812;2024-03-29T09:55:56;97390.31;;;15.53;83.48
51261;BME280;61705;46.228;24.812;2024-03-29T09:58:22;97381.66;;;15.24;82.42
51261;BME280;61705;46.228;24.812;2024-03-29T10:00:48;97392.25;;;15.38;84.76
51261;BME280;61705;46.228;24.812;2024-03-29T10:03:14;97380.94;;;15.48;82.91
51261;BME280;61705;46.228;24.812;2024-03-29T10:05:40;97388.06;;;15.47;82.64
51261;BME280;61705;46.228;24.812;2024-03-29T10:08:05;97378.25;;;15.48;81.47
51261;BME280;61705;46.228;24.812;2024-03-29T10:10:32;97392.63;;;15.45;81.97
51261;BME280;61705;46.228;24.812;2024-03-29T10:12:58;97389.56;;;15.64;81.83
51261;BME280;61705;46.228;24.812;2024-03-29T10:15:24;97394.16;;;15.75;82.40
51261;BME280;61705;46.228;24.812;2024-03-29T10:17:52;97397.78;;;15.86;81.73
51261;BME280;61705;46.228;24.812;2024-03-29T10:20:18;97404.47;;;15.79;77.94
51261;BME280;61705;46.228;24.812;2024-03-29T10:22:45;97399.81;;;15.70;78.24
51261;BME280;61705;46.228;24.812;2024-03-29T10:25:11;97398.94;;;15.82;77.39
51261;BME280;61705;46.228;24.812;2024-03-29T10:27:38;97390.63;;;15.87;76.84
51261;BME280;61705;46.228;24.812;2024-03-29T10:30:05;97385.91;;;16.03;76.75
51261;BME280;61705;46.228;24.812;2024-03-29T10:32:30;97391.34;;;15.89;77.16
51261;BME280;61705;46.228;24.812;2024-03-29T10:34:56;97387.19;;;15.98;75.95
51261;BME280;61705;46.228;24.812;2024-03-29T10:37:22;97382.38;;;16.03;76.22
51261;BME280;61705;46.228;24.812;2024-03-29T10:39:52;97391.59;;;16.23;75.92
51261;BME280;61705;46.228;24.812;2024-03-29T10:42:21;97384.34;;;16.25;74.54
51261;BME280;61705;46.228;24.812;2024-03-29T10:44:48;97389.97;;;16.20;74.00
51261;BME280;61705;46.228;24.812;2024-03-29T10:47:18;97391.09;;;16.18;74.02
51261;BME280;61705;46.228;24.812;2024-03-29T10:49:44;97377.59;;;15.95;73.96
51261;BME280;61705;46.228;24.812;2024-03-29T10:52:12;97386.81;;;16.15;72.79
51261;BME280;61705;46.228;24.812;2024-03-29T10:54:43;97375.81;;;16.20;71.35
51261;BME280;61705;46.228;24.812;2024-03-29T10:57:11;97377.84;;;16.16;71.87
51261;BME280;61705;46.228;24.812;2024-03-29T11:04:52;97380.59;;;16.51;68.03
51261;BME280;61705;46.228;24.812;2024-03-29T11:07:19;97365.31;;;16.29;65.25
51261;BME280;61705;46.228;24.812;2024-03-29T11:09:50;97370.47;;;16.44;66.16
51261;BME280;61705;46.228;24.812;2024-03-29T11:12:18;97371.19;;;16.58;65.85
51261;BME280;61705;46.228;24.812;2024-03-29T11:14:46;97377.38;;;16.59;63.29
51261;BME280;61705;46.228;24.812;2024-03-29T11:17:13;97370.31;;;16.58;61.70
51261;BME280;61705;46.228;24.812;2024-03-29T11:19:39;97364.34;;;16.78;61.07
51261;BME280;61705;46.228;24.812;2024-03-29T11:22:05;97376.66;;;16.68;60.16
51261;BME280;61705;46.228;24.812;2024-03-29T11:24:31;97371.97;;;16.72;60.75
51261;BME280;61705;46.228;24.812;2024-03-29T11:26:57;97375.69;;;16.82;61.08
51261;BME280;61705;46.228;24.812;2024-03-29T11:29:23;97378.34;;;16.82;61.03
51261;BME280;61705;46.228;24.812;2024-03-29T11:31:56;97374.31;;;16.76;60.99
51261;BME280;61705;46.228;24.812;2024-03-29T11:34:21;97366.34;;;16.99;61.17
51261;BME280;61705;46.228;24.812;2024-03-29T11:36:47;97369.38;;;16.94;60.83
51261;BME280;61705;46.228;24.812;2024-03-29T11:39:19;97363.44;;;17.02;59.13
51261;BME280;61705;46.228;24.812;2024-03-29T11:41:48;97358.53;;;17.20;58.71
51261;BME280;61705;46.228;24.812;2024-03-29T11:44:14;97364.59;;;17.33;56.34
51261;BME280;61705;46.228;24.812;2024-03-29T11:46:40;97351.13;;;17.23;56.40
51261;BME280;61705;46.228;24.812;2024-03-29T11:49:06;97353.44;;;17.28;55.61
51261;BME280;61705;46.228;24.812;2024-03-29T11:51:32;97350.41;;;17.33;54.16
51261;BME280;61705;46.228;24.812;2024-03-29T11:53:59;97344.81;;;17.47;53.47
51261;BME280;61705;46.228;24.812;2024-03-29T11:56:25;97342.16;;;17.47;53.73
51261;BME280;61705;46.228;24.812;2024-03-29T11:58:51;97339.59;;;17.57;53.29
51261;BME280;61705;46.228;24.812;2024-03-29T12:01:16;97338.28;;;17.62;52.33
51261;BME280;61705;46.228;24.812;2024-03-29T12:03:42;97341.47;;;17.79;51.94
51261;BME280;61705;46.228;24.812;2024-03-29T12:06:09;97347.03;;;17.75;49.81
51261;BME280;61705;46.228;24.812;2024-03-29T12:08:38;97342.16;;;17.69;47.77
51261;BME280;61705;46.228;24.812;2024-03-29T12:11:04;97353.00;;;17.79;44.63
51261;BME280;61705;46.228;24.812;2024-03-29T12:13:30;97354.69;;;17.91;44.58
51261;BME280;61705;46.228;24.812;2024-03-29T12:15:55;97349.97;;;17.95;42.94
51261;BME280;61705;46.228;24.812;2024-03-29T12:18:23;97358.47;;;17.89;42.66
51261;BME280;61705;46.228;24.812;2024-03-29T12:20:49;97356.25;;;17.94;42.46
51261;BME280;61705;46.228;24.812;2024-03-29T12:23:15;97344.00;;;17.91;41.63
51261;BME280;61705;46.228;24.812;2024-03-29T12:25:41;97334.53;;;17.98;42.06
51261;BME280;61705;46.228;24.812;2024-03-29T12:28:08;97354.09;;;17.99;41.39
51261;BME280;61705;46.228;24.812;2024-03-29T12:30:34;97341.31;;;17.91;41.91
51261;BME280;61705;46.228;24.812;2024-03-29T12:33:04;97353.94;;;18.00;42.86
51261;BME280;61705;46.228;24.812;2024-03-29T12:35:32;97353.22;;;18.10;42.82
51261;BME280;61705;46.228;24.812;2024-03-29T12:37:58;97340.44;;;18.13;43.56
51261;BME280;61705;46.228;24.812;2024-03-29T12:40:25;97334.50;;;18.10;42.99
51261;BME280;61705;46.228;24.812;2024-03-29T12:42:51;97333.13;;;18.27;43.33
51261;BME280;61705;46.228;24.812;2024-03-29T12:45:21;97338.50;;;18.47;43.31
51261;BME280;61705;46.228;24.812;2024-03-29T12:47:47;97327.06;;;18.45;42.99
51261;BME280;61705;46.228;24.812;2024-03-29T12:50:13;97345.81;;;18.45;42.36